sensor_id;sensor_type;location;lat;lon;timestamp;temperature;humidity
52859;DHT22;38721;53.098;6.596;2022-08-01T00:00:37;18.50;99.90
52859;DHT22;38721;53.098;6.596;2022-08-01T00:03:03;18.50;99.90
52859;DHT22;38721;53.098;6.596;2022-08-01T00:05:29;18.50;99.90
52859;DHT22;38721;53.098;6.596;2022-08-01T00:07:55;18.40;99.90
52859;DHT22;38721;53.098;6.596;2022-08-01T00:10:20;18.40;99.90
52859;DHT22;38721;53.098;6.596;2022-08-01T00:12:47;18.40;99.90
52859;DHT22;38721;53.098;6.596;2022-08-01T00:15:15;18.40;99.90
52859;DHT22;38721;53.098;6.596;2022-08-01T00:17:42;18.40;99.90
52859;DHT22;38721;53.098;6.596;2022-08-01T00:20:11;18.40;99.90
52859;DHT22;38721;53.098;6.596;2022-08-01T00:22:37;18.50;99.90
52859;DHT22;38721;53.098;6.596;2022-08-01T00:25:04;18.50;99.90
52859;DHT22;38721;53.098;6.596;2022-08-01T00:27:30;18.40;99.90
52859;DHT22;38721;53.098;6.596;2022-08-01T00:29:55;18.50;99.90
52859;DHT22;38721;53.098;6.596;2022-08-01T00:32:21;18.50;99.90
52859;DHT22;38721;53.098;6.596;2022-08-01T00:34:48;18.40;99.90
52859;DHT22;38721;53.098;6.596;2022-08-01T00:37:13;18.40;99.90
52859;DHT22;38721;53.098;6.596;2022-08-01T00:39:39;18.40;1.00
52859;DHT22;38721;53.098;6.596;2022-08-01T00:42:10;18.50;1.00
52859;DHT22;38721;53.098;6.596;2022-08-01T00:44:36;18.40;1.00
52859;DHT22;38721;53.098;6.596;2022-08-01T00:47:02;18.50;1.00
52859;DHT22;38721;53.098;6.596;2022-08-01T00:49:29;18.40;1.00
52859;DHT22;38721;53.098;6.596;2022-08-01T00:51:55;18.40;1.00
52859;DHT22;38721;53.098;6.596;2022-08-01T00:54:23;18.40;12.00
52859;DHT22;38721;53.098;6.596;2022-08-01T00:56:49;18.40;28.20
52859;DHT22;38721;53.098;6.596;2022-08-01T00:59:17;18.50;22.30
52859;DHT22;38721;53.098;6.596;2022-08-01T01:01:43;18.50;14.40
52859;DHT22;38721;53.098;6.596;2022-08-01T01:04:09;18.50;31.40
52859;DHT22;38721;53.098;6.596;2022-08-01T01:06:42;18.40;63.00
52859;DHT22;38721;53.098;6.596;2022-08-01T01:17:51;18.40;17.50
52859;DHT22;38721;53.098;6.596;2022-08-01T01:20:21;18.50;65.20
52859;DHT22;38721;53.098;6.596;2022-08-01T01:30:58;18.50;43.10
52859;DHT22;38721;53.098;6.596;2022-08-01T01:33:26;18.40;8.90
52859;DHT22;38721;53.098;6.596;2022-08-01T01:36:04;18.50;1.00
52859;DHT22;38721;53.098;6.596;2022-08-01T01:38:34;18.30;1.00
52859;DHT22;38721;53.098;6.596;2022-08-01T01:41:02;18.30;1.00
52859;DHT22;38721;53.098;6.596;2022-08-01T01:43:29;18.30;1.00
52859;DHT22;38721;53.098;6.596;2022-08-01T01:45:57;18.40;99.90
52859;DHT22;38721;53.098;6.596;2022-08-01T01:48:24;18.30;99.90
52859;DHT22;38721;53.098;6.596;2022-08-01T01:50:53;18.30;99.90
52859;DHT22;38721;53.098;6.596;2022-08-01T01:53:21;18.30;99.90
52859;DHT22;38721;53.098;6.596;2022-08-01T01:55:52;18.20;99.90
52859;DHT22;38721;53.098;6.596;2022-08-01T01:58:20;18.20;99.90
52859;DHT22;38721;53.098;6.596;2022-08-01T02:00:47;18.10;99.90
52859;DHT22;38721;53.098;6.596;2022-08-01T02:03:14;18.10;99.90
52859;DHT22;38721;53.098;6.596;2022-08-01T02:05:42;18.10;99.90
52859;DHT22;38721;53.098;6.596;2022-08-01T02:08:10;18.00;99.90
52859;DHT22;38721;53.098;6.596;2022-08-01T02:10:37;18.10;99.90
52859;DHT22;38721;53.098;6.596;2022-08-01T02:13:04;18.00;99.90
52859;DHT22;38721;53.098;6.596;2022-08-01T02:15:33;18.00;99.90
52859;DHT22;38721;53.098;6.596;2022-08-01T02:18:01;18.00;99.90
52859;DHT22;38721;53.098;6.596;2022-08-01T02:20:29;17.90;99.90
52859;DHT22;38721;53.098;6.596;2022-08-01T02:23:16;18.00;99.90
52859;DHT22;38721;53.098;6.596;2022-08-01T02:25:52;17.90;99.90
52859;DHT22;38721;53.098;6.596;2022-08-01T02:28:29;17.90;99.90
52859;DHT22;38721;53.098;6.596;2022-08-01T02:31:03;17.90;99.90
52859;DHT22;38721;53.098;6.596;2022-08-01T02:33:43;17.90;99.90
52859;DHT22;38721;53.098;6.596;2022-08-01T02:36:13;17.80;99.90
52859;DHT22;38721;53.098;6.596;2022-08-01T02:38:42;17.80;99.90
52859;DHT22;38721;53.098;6.596;2022-08-01T02:41:13;17.80;99.90
52859;DHT22;38721;53.098;6.596;2022-08-01T02:43:46;17.80;99.90
52859;DHT22;38721;53.098;6.596;2022-08-01T02:46:17;17.70;99.90
52859;DHT22;38721;53.098;6.596;2022-08-01T02:48:45;17.80;99.90
52859;DHT22;38721;53.098;6.596;2022-08-01T02:51:13;17.80;96.10
52859;DHT22;38721;53.098;6.596;2022-08-01T02:53:42;17.70;96.50
52859;DHT22;38721;53.098;6.596;2022-08-01T02:56:12;17.70;42.40
52859;DHT22;38721;53.098;6.596;2022-08-01T02:58:39;17.70;8.40
52859;DHT22;38721;53.098;6.596;2022-08-01T03:01:06;17.70;1.00
52859;DHT22;38721;53.098;6.596;2022-08-01T03:03:33;17.70;1.00
52859;DHT22;38721;53.098;6.596;2022-08-01T03:06:00;17.70;32.10
52859;DHT22;38721;53.098;6.596;2022-08-01T03:08:29;17.70;1.00
52859;DHT22;38721;53.098;6.596;2022-08-01T03:10:56;17.70;36.50
52859;DHT22;38721;53.098;6.596;2022-08-01T03:13:25;17.60;8.80
52859;DHT22;38721;53.098;6.596;2022-08-01T03:15:52;17.60;63.10
52859;DHT22;38721;53.098;6.596;2022-08-01T03:18:20;17.60;99.90
52859;DHT22;38721;53.098;6.596;2022-08-01T03:20:47;17.60;61.30
52859;DHT22;38721;53.098;6.596;2022-08-01T03:23:15;17.50;74.30
52859;DHT22;38721;53.098;6.596;2022-08-01T03:25:43;17.40;91.30
52859;DHT22;38721;53.098;6.596;2022-08-01T03:28:12;17.50;99.90
52859;DHT22;38721;53.098;6.596;2022-08-01T03:30:39;17.40;69.40
52859;DHT22;38721;53.098;6.596;2022-08-01T03:33:06;17.40;60.00
52859;DHT22;38721;53.098;6.596;2022-08-01T03:35:39;17.30;75.30
52859;DHT22;38721;53.098;6.596;2022-08-01T03:38:11;17.40;93.50
52859;DHT22;38721;53.098;6.596;2022-08-01T03:40:45;17.40;58.70
52859;DHT22;38721;53.098;6.596;2022-08-01T03:43:20;17.30;1.00
52859;DHT22;38721;53.098;6.596;2022-08-01T03:45:50;17.30;1.00
52859;DHT22;38721;53.098;6.596;2022-08-01T03:48:18;17.30;1.00
52859;DHT22;38721;53.098;6.596;2022-08-01T03:50:47;17.30;17.80
52859;DHT22;38721;53.098;6.596;2022-08-01T03:53:16;17.20;1.00
52859;DHT22;38721;53.098;6.596;2022-08-01T03:55:46;17.20;50.70
52859;DHT22;38721;53.098;6.596;2022-08-01T03:58:13;17.10;13.20
52859;DHT22;38721;53.098;6.596;2022-08-01T04:00:39;17.10;75.10
52859;DHT22;38721;53.098;6.596;2022-08-01T04:03:07;17.20;38.20
52859;DHT22;38721;53.098;6.596;2022-08-01T04:05:33;17.10;99.90
52859;DHT22;38721;53.098;6.596;2022-08-01T04:07:59;17.20;99.90
52859;DHT22;38721;53.098;6.596;2022-08-01T04:10:27;17.10;99.90
52859;DHT22;38721;53.098;6.596;2022-08-01T04:12:53;17.00;99.90
52859;DHT22;38721;53.098;6.596;2022-08-01T04:15:19;17.10;99.90
52859;DHT22;38721;53.098;6.596;2022-08-01T04:17:48;17.10;99.90
52859;DHT22;38721;53.098;6.596;2022-08-01T04:20:14;17.10;99.90
52859;DHT22;38721;53.098;6.596;2022-08-01T04:22:41;17.10;99.90
52859;DHT22;38721;53.098;6.596;2022-08-01T04:25:12;17.10;99.90
52859;DHT22;38721;53.098;6.596;2022-08-01T04:27:44;17.00;99.90
52859;DHT22;38721;53.098;6.596;2022-08-01T04:30:12;17.10;99.90
52859;DHT22;38721;53.098;6.596;2022-08-01T04:32:40;17.00;99.90
52859;DHT22;38721;53.098;6.596;2022-08-01T04:35:11;17.10;99.90
52859;DHT22;38721;53.098;6.596;2022-08-01T04:37:39;17.00;99.90
52859;DHT22;38721;53.098;6.596;2022-08-01T04:40:07;17.00;37.70
52859;DHT22;38721;53.098;6.596;2022-08-01T04:42:34;17.00;1.00
52859;DHT22;38721;53.098;6.596;2022-08-01T04:45:00;16.90;1.00
52859;DHT22;38721;53.098;6.596;2022-08-01T04:47:26;16.90;99.90
52859;DHT22;38721;53.098;6.596;2022-08-01T04:49:52;16.90;99.90
52859;DHT22;38721;53.098;6.596;2022-08-01T04:52:19;16.90;99.90
52859;DHT22;38721;53.098;6.596;2022-08-01T04:54:45;16.90;99.90
52859;DHT22;38721;53.098;6.596;2022-08-01T04:57:12;16.80;99.90
52859;DHT22;38721;53.098;6.596;2022-08-01T04:59:43;17.00;99.90
52859;DHT22;38721;53.098;6.596;2022-08-01T05:02:19;17.00;99.90
52859;DHT22;38721;53.098;6.596;2022-08-01T05:04:46;16.80;99.90
52859;DHT22;38721;53.098;6.596;2022-08-01T05:07:13;17.00;99.90
52859;DHT22;38721;53.098;6.596;2022-08-01T05:09:40;16.90;99.90
52859;DHT22;38721;53.098;6.596;2022-08-01T05:12:11;16.90;99.90
52859;DHT22;38721;53.098;6.596;2022-08-01T05:14:37;16.80;87.30
52859;DHT22;38721;53.098;6.596;2022-08-01T05:17:05;16.90;99.80
52859;DHT22;38721;53.098;6.596;2022-08-01T05:19:32;16.90;99.90
52859;DHT22;38721;53.098;6.596;2022-08-01T05:21:59;16.80;82.70
52859;DHT22;38721;53.098;6.596;2022-08-01T05:24:27;17.00;1.00
52859;DHT22;38721;53.098;6.596;2022-08-01T05:26:57;16.80;1.00
52859;DHT22;38721;53.098;6.596;2022-08-01T05:29:23;17.00;35.90
52859;DHT22;38721;53.098;6.596;2022-08-01T05:31:49;16.90;20.60
52859;DHT22;38721;53.098;6.596;2022-08-01T05:34:15;16.80;1.00
52859;DHT22;38721;53.098;6.596;2022-08-01T05:36:44;16.80;1.00
52859;DHT22;38721;53.098;6.596;2022-08-01T05:39:10;16.80;1.00
52859;DHT22;38721;53.098;6.596;2022-08-01T05:41:36;16.90;1.00
52859;DHT22;38721;53.098;6.596;2022-08-01T05:44:03;16.80;1.00
52859;DHT22;38721;53.098;6.596;2022-08-01T05:46:29;16.90;1.00
52859;DHT22;38721;53.098;6.596;2022-08-01T05:49:03;16.90;1.00
52859;DHT22;38721;53.098;6.596;2022-08-01T05:51:29;16.90;1.00
52859;DHT22;38721;53.098;6.596;2022-08-01T05:53:55;16.90;1.00
52859;DHT22;38721;53.098;6.596;2022-08-01T05:56:21;16.90;1.00
52859;DHT22;38721;53.098;6.596;2022-08-01T05:58:48;16.90;1.00
52859;DHT22;38721;53.098;6.596;2022-08-01T06:01:15;17.00;1.00
52859;DHT22;38721;53.098;6.596;2022-08-01T06:03:41;17.00;1.00
52859;DHT22;38721;53.098;6.596;2022-08-01T06:06:07;16.90;1.00
52859;DHT22;38721;53.098;6.596;2022-08-01T06:08:32;16.90;1.00
52859;DHT22;38721;53.098;6.596;2022-08-01T06:10:58;16.90;1.00
52859;DHT22;38721;53.098;6.596;2022-08-01T06:13:24;17.00;1.00
52859;DHT22;38721;53.098;6.596;2022-08-01T06:15:50;17.00;1.00
52859;DHT22;38721;53.098;6.596;2022-08-01T06:18:16;17.00;99.90
52859;DHT22;38721;53.098;6.596;2022-08-01T06:20:42;17.00;99.90
52859;DHT22;38721;53.098;6.596;2022-08-01T06:23:08;17.00;1.00
52859;DHT22;38721;53.098;6.596;2022-08-01T06:25:34;17.00;99.90
52859;DHT22;38721;53.098;6.596;2022-08-01T06:28:00;17.00;1.00
52859;DHT22;38721;53.098;6.596;2022-08-01T06:30:26;17.00;1.00
52859;DHT22;38721;53.098;6.596;2022-08-01T06:32:52;17.00;99.90
52859;DHT22;38721;53.098;6.596;2022-08-01T06:35:18;17.00;99.90
52859;DHT22;38721;53.098;6.596;2022-08-01T06:37:44;16.90;99.90
52859;DHT22;38721;53.098;6.596;2022-08-01T06:40:13;16.80;99.90
52859;DHT22;38721;53.098;6.596;2022-08-01T06:42:38;16.80;99.90
52859;DHT22;38721;53.098;6.596;2022-08-01T06:45:05;16.90;99.90
52859;DHT22;38721;53.098;6.596;2022-08-01T06:47:32;16.90;99.90
52859;DHT22;38721;53.098;6.596;2022-08-01T06:49:58;16.90;99.90
52859;DHT22;38721;53.098;6.596;2022-08-01T06:52:26;16.90;99.90
52859;DHT22;38721;53.098;6.596;2022-08-01T06:54:51;17.00;99.90
52859;DHT22;38721;53.098;6.596;2022-08-01T06:57:17;17.10;99.90
52859;DHT22;38721;53.098;6.596;2022-08-01T06:59:43;17.00;1.00
52859;DHT22;38721;53.098;6.596;2022-08-01T07:02:08;17.00;99.90
52859;DHT22;38721;53.098;6.596;2022-08-01T07:04:34;17.00;1.10
52859;DHT22;38721;53.098;6.596;2022-08-01T07:07:00;17.00;1.00
52859;DHT22;38721;53.098;6.596;2022-08-01T07:09:26;17.10;78.00
52859;DHT22;38721;53.098;6.596;2022-08-01T07:11:52;17.10;1.00
52859;DHT22;38721;53.098;6.596;2022-08-01T07:14:20;17.20;1.00
52859;DHT22;38721;53.098;6.596;2022-08-01T07:16:46;17.40;16.80
52859;DHT22;38721;53.098;6.596;2022-08-01T07:19:12;17.30;1.00
52859;DHT22;38721;53.098;6.596;2022-08-01T07:21:38;17.30;99.90
52859;DHT22;38721;53.098;6.596;2022-08-01T07:24:05;17.40;1.00
52859;DHT22;38721;53.098;6.596;2022-08-01T07:26:31;17.60;1.00
52859;DHT22;38721;53.098;6.596;2022-08-01T07:28:56;17.50;1.00
52859;DHT22;38721;53.098;6.596;2022-08-01T07:31:25;17.70;1.00
52859;DHT22;38721;53.098;6.596;2022-08-01T07:33:51;17.60;99.90
52859;DHT22;38721;53.098;6.596;2022-08-01T07:36:17;17.80;99.90
52859;DHT22;38721;53.098;6.596;2022-08-01T07:38:44;17.80;99.90
52859;DHT22;38721;53.098;6.596;2022-08-01T07:41:10;17.60;99.90
52859;DHT22;38721;53.098;6.596;2022-08-01T07:43:36;17.80;99.90
52859;DHT22;38721;53.098;6.596;2022-08-01T07:46:03;17.60;99.90
52859;DHT22;38721;53.098;6.596;2022-08-01T07:48:29;17.90;99.90
52859;DHT22;38721;53.098;6.596;2022-08-01T07:50:55;18.00;99.90
52859;DHT22;38721;53.098;6.596;2022-08-01T07:53:20;18.20;99.90
52859;DHT22;38721;53.098;6.596;2022-08-01T07:55:46;17.90;99.90
52859;DHT22;38721;53.098;6.596;2022-08-01T07:58:13;18.10;99.90
52859;DHT22;38721;53.098;6.596;2022-08-01T08:00:39;17.90;99.90
52859;DHT22;38721;53.098;6.596;2022-08-01T08:03:07;18.00;99.90
52859;DHT22;38721;53.098;6.596;2022-08-01T08:05:33;18.50;99.90
52859;DHT22;38721;53.098;6.596;2022-08-01T08:08:04;18.40;99.90
52859;DHT22;38721;53.098;6.596;2022-08-01T08:10:30;18.40;24.30
52859;DHT22;38721;53.098;6.596;2022-08-01T08:13:00;18.30;48.40
52859;DHT22;38721;53.098;6.596;2022-08-01T08:15:29;18.20;1.00
52859;DHT22;38721;53.098;6.596;2022-08-01T08:17:55;18.50;1.00
52859;DHT22;38721;53.098;6.596;2022-08-01T08:20:28;18.80;99.90
52859;DHT22;38721;53.098;6.596;2022-08-01T08:22:55;18.60;99.90
52859;DHT22;38721;53.098;6.596;2022-08-01T08:25:24;18.50;1.00
52859;DHT22;38721;53.098;6.596;2022-08-01T08:27:50;18.70;99.90
52859;DHT22;38721;53.098;6.596;2022-08-01T08:30:16;18.70;99.90
52859;DHT22;38721;53.098;6.596;2022-08-01T08:32:43;18.80;1.00
52859;DHT22;38721;53.098;6.596;2022-08-01T08:35:09;18.80;99.90
52859;DHT22;38721;53.098;6.596;2022-08-01T08:37:36;19.00;1.00
52859;DHT22;38721;53.098;6.596;2022-08-01T08:40:06;19.10;99.90
52859;DHT22;38721;53.098;6.596;2022-08-01T08:42:32;18.60;99.90
52859;DHT22;38721;53.098;6.596;2022-08-01T08:44:58;18.50;8.60
52859;DHT22;38721;53.098;6.596;2022-08-01T08:47:24;18.30;99.90
52859;DHT22;38721;53.098;6.596;2022-08-01T08:49:53;18.60;99.90
52859;DHT22;38721;53.098;6.596;2022-08-01T08:52:20;19.00;99.90
52859;DHT22;38721;53.098;6.596;2022-08-01T08:54:48;19.40;99.90
52859;DHT22;38721;53.098;6.596;2022-08-01T08:57:14;19.40;99.90
52859;DHT22;38721;53.098;6.596;2022-08-01T08:59:40;18.80;99.90
52859;DHT22;38721;53.098;6.596;2022-08-01T09:02:08;18.90;99.90
52859;DHT22;38721;53.098;6.596;2022-08-01T09:04:35;18.90;99.90
52859;DHT22;38721;53.098;6.596;2022-08-01T09:07:04;18.90;99.90
52859;DHT22;38721;53.098;6.596;2022-08-01T09:09:30;19.20;99.90
52859;DHT22;38721;53.098;6.596;2022-08-01T09:11:56;19.00;99.90
52859;DHT22;38721;53.098;6.596;2022-08-01T09:14:22;19.40;99.90
52859;DHT22;38721;53.098;6.596;2022-08-01T09:19:38;19.80;99.90
52859;DHT22;38721;53.098;6.596;2022-08-01T09:22:08;19.90;99.90
52859;DHT22;38721;53.098;6.596;2022-08-01T09:24:34;19.40;99.90
52859;DHT22;38721;53.098;6.596;2022-08-01T09:27:02;19.80;99.90
52859;DHT22;38721;53.098;6.596;2022-08-01T09:29:39;19.60;99.90
52859;DHT22;38721;53.098;6.596;2022-08-01T09:32:06;19.70;99.90
52859;DHT22;38721;53.098;6.596;2022-08-01T09:34:32;19.20;99.90
52859;DHT22;38721;53.098;6.596;2022-08-01T09:37:00;19.60;99.90
52859;DHT22;38721;53.098;6.596;2022-08-01T09:39:28;19.70;99.90
52859;DHT22;38721;53.098;6.596;2022-08-01T09:41:56;20.00;99.90
52859;DHT22;38721;53.098;6.596;2022-08-01T09:44:39;19.60;99.90
52859;DHT22;38721;53.098;6.596;2022-08-01T09:47:08;19.30;99.90
52859;DHT22;38721;53.098;6.596;2022-08-01T09:49:36;19.60;99.90
52859;DHT22;38721;53.098;6.596;2022-08-01T09:52:13;19.60;99.90
52859;DHT22;38721;53.098;6.596;2022-08-01T09:54:39;19.60;99.90
52859;DHT22;38721;53.098;6.596;2022-08-01T09:57:13;19.50;99.90
52859;DHT22;38721;53.098;6.596;2022-08-01T09:59:46;19.40;99.90
52859;DHT22;38721;53.098;6.596;2022-08-01T10:02:36;19.60;99.90
52859;DHT22;38721;53.098;6.596;2022-08-01T10:05:01;19.80;99.90
52859;DHT22;38721;53.098;6.596;2022-08-01T10:07:27;20.00;10.10
52859;DHT22;38721;53.098;6.596;2022-08-01T10:09:53;19.60;1.00
52859;DHT22;38721;53.098;6.596;2022-08-01T10:12:21;20.00;24.40
52859;DHT22;38721;53.098;6.596;2022-08-01T10:14:48;20.30;89.30
52859;DHT22;38721;53.098;6.596;2022-08-01T10:17:20;20.30;56.90
52859;DHT22;38721;53.098;6.596;2022-08-01T10:19:46;19.70;20.60
52859;DHT22;38721;53.098;6.596;2022-08-01T10:22:16;19.20;1.00
52859;DHT22;38721;53.098;6.596;2022-08-01T10:24:47;19.50;1.00
52859;DHT22;38721;53.098;6.596;2022-08-01T10:27:15;19.80;1.00
52859;DHT22;38721;53.098;6.596;2022-08-01T10:29:46;19.60;1.00
52859;DHT22;38721;53.098;6.596;2022-08-01T10:32:12;19.40;1.00
52859;DHT22;38721;53.098;6.596;2022-08-01T10:34:38;19.80;96.70
52859;DHT22;38721;53.098;6.596;2022-08-01T10:37:04;20.20;44.70
52859;DHT22;38721;53.098;6.596;2022-08-01T10:39:31;20.40;1.00
52859;DHT22;38721;53.098;6.596;2022-08-01T10:41:58;20.10;1.00
52859;DHT22;38721;53.098;6.596;2022-08-01T10:44:29;19.70;1.00
52859;DHT22;38721;53.098;6.596;2022-08-01T10:47:06;20.40;1.00
52859;DHT22;38721;53.098;6.596;2022-08-01T10:49:41;20.50;1.00
52859;DHT22;38721;53.098;6.596;2022-08-01T10:52:15;20.40;1.00
52859;DHT22;38721;53.098;6.596;2022-08-01T10:54:40;20.70;1.00
52859;DHT22;38721;53.098;6.596;2022-08-01T10:57:06;21.10;1.00
52859;DHT22;38721;53.098;6.596;2022-08-01T10:59:32;20.60;1.00
52859;DHT22;38721;53.098;6.596;2022-08-01T11:02:04;21.10;1.00
52859;DHT22;38721;53.098;6.596;2022-08-01T11:05:00;21.10;1.00
52859;DHT22;38721;53.098;6.596;2022-08-01T11:08:03;21.10;1.00
52859;DHT22;38721;53.098;6.596;2022-08-01T11:12:54;19.60;1.00
52859;DHT22;38721;53.098;6.596;2022-08-01T11:15:24;20.00;1.00
52859;DHT22;38721;53.098;6.596;2022-08-01T11:17:51;20.50;1.00
52859;DHT22;38721;53.098;6.596;2022-08-01T11:30:40;20.80;1.00
52859;DHT22;38721;53.098;6.596;2022-08-01T11:33:06;21.00;99.90
52859;DHT22;38721;53.098;6.596;2022-08-01T11:35:33;21.00;1.00
52859;DHT22;38721;53.098;6.596;2022-08-01T11:38:22;20.40;99.90
52859;DHT22;38721;53.098;6.596;2022-08-01T11:44:04;20.90;99.90
52859;DHT22;38721;53.098;6.596;2022-08-01T11:47:05;20.40;99.90
52859;DHT22;38721;53.098;6.596;2022-08-01T11:49:34;20.30;99.90
52859;DHT22;38721;53.098;6.596;2022-08-01T11:52:18;20.20;99.90
52859;DHT22;38721;53.098;6.596;2022-08-01T11:54:48;20.30;99.90
52859;DHT22;38721;53.098;6.596;2022-08-01T11:57:21;20.60;99.90
52859;DHT22;38721;53.098;6.596;2022-08-01T11:59:55;20.80;99.90
52859;DHT22;38721;53.098;6.596;2022-08-01T12:02:24;20.60;99.90
52859;DHT22;38721;53.098;6.596;2022-08-01T12:04:57;20.30;99.90
52859;DHT22;38721;53.098;6.596;2022-08-01T12:07:25;20.70;99.90
52859;DHT22;38721;53.098;6.596;2022-08-01T12:10:04;20.60;99.90
52859;DHT22;38721;53.098;6.596;2022-08-01T12:12:31;20.80;99.90
52859;DHT22;38721;53.098;6.596;2022-08-01T12:14:59;21.00;99.90
52859;DHT22;38721;53.098;6.596;2022-08-01T12:17:37;21.20;99.90
52859;DHT22;38721;53.098;6.596;2022-08-01T12:20:08;20.90;99.90
52859;DHT22;38721;53.098;6.596;2022-08-01T12:22:37;21.40;99.90
52859;DHT22;38721;53.098;6.596;2022-08-01T12:25:15;21.20;99.90
52859;DHT22;38721;53.098;6.596;2022-08-01T12:27:42;20.70;99.90
52859;DHT22;38721;53.098;6.596;2022-08-01T12:30:14;20.80;99.90
52859;DHT22;38721;53.098;6.596;2022-08-01T12:32:42;21.40;99.90
52859;DHT22;38721;53.098;6.596;2022-08-01T12:37:36;21.60;99.90
52859;DHT22;38721;53.098;6.596;2022-08-01T12:40:12;21.90;99.90
52859;DHT22;38721;53.098;6.596;2022-08-01T12:42:40;21.60;99.90
52859;DHT22;38721;53.098;6.596;2022-08-01T12:45:11;21.60;99.90
52859;DHT22;38721;53.098;6.596;2022-08-01T12:47:38;21.60;99.90
52859;DHT22;38721;53.098;6.596;2022-08-01T12:50:07;21.10;99.90
52859;DHT22;38721;53.098;6.596;2022-08-01T12:52:33;21.70;99.90
52859;DHT22;38721;53.098;6.596;2022-08-01T12:55:01;21.90;99.90
52859;DHT22;38721;53.098;6.596;2022-08-01T12:57:27;21.90;99.90
52859;DHT22;38721;53.098;6.596;2022-08-01T13:00:04;21.50;99.90
52859;DHT22;38721;53.098;6.596;2022-08-01T13:02:34;21.40;99.90
52859;DHT22;38721;53.098;6.596;2022-08-01T13:05:00;21.50;99.90
52859;DHT22;38721;53.098;6.596;2022-08-01T13:07:47;21.80;99.90
52859;DHT22;38721;53.098;6.596;2022-08-01T13:10:30;21.30;99.90
52859;DHT22;38721;53.098;6.596;2022-08-01T13:13:00;21.90;99.90
52859;DHT22;38721;53.098;6.596;2022-08-01T13:15:31;21.10;99.90
52859;DHT22;38721;53.098;6.596;2022-08-01T13:17:59;20.90;99.90
52859;DHT22;38721;53.098;6.596;2022-08-01T13:20:32;21.30;99.90
52859;DHT22;38721;53.098;6.596;2022-08-01T13:23:18;21.60;99.90
52859;DHT22;38721;53.098;6.596;2022-08-01T13:25:53;22.00;99.90
52859;DHT22;38721;53.098;6.596;2022-08-01T13:28:20;22.00;99.90
52859;DHT22;38721;53.098;6.596;2022-08-01T13:30:59;21.60;99.90
52859;DHT22;38721;53.098;6.596;2022-08-01T13:33:27;22.40;99.90
52859;DHT22;38721;53.098;6.596;2022-08-01T13:35:54;22.80;99.90
52859;DHT22;38721;53.098;6.596;2022-08-01T13:38:20;21.90;99.90
52859;DHT22;38721;53.098;6.596;2022-08-01T13:41:07;21.50;99.90
52859;DHT22;38721;53.098;6.596;2022-08-01T13:43:33;21.90;99.90
52859;DHT22;38721;53.098;6.596;2022-08-01T13:46:00;22.60;99.90
52859;DHT22;38721;53.098;6.596;2022-08-01T13:48:28;22.60;99.90
52859;DHT22;38721;53.098;6.596;2022-08-01T13:50:53;22.80;99.90
52859;DHT22;38721;53.098;6.596;2022-08-01T13:53:19;22.60;99.90
52859;DHT22;38721;53.098;6.596;2022-08-01T13:55:45;22.90;99.90
52859;DHT22;38721;53.098;6.596;2022-08-01T13:58:10;22.60;99.90
52859;DHT22;38721;53.098;6.596;2022-08-01T14:00:36;23.10;99.90
52859;DHT22;38721;53.098;6.596;2022-08-01T14:03:02;23.40;99.90
52859;DHT22;38721;53.098;6.596;2022-08-01T14:05:27;23.00;99.90
52859;DHT22;38721;53.098;6.596;2022-08-01T14:07:56;22.50;99.90
52859;DHT22;38721;53.098;6.596;2022-08-01T14:10:23;22.90;99.90
52859;DHT22;38721;53.098;6.596;2022-08-01T14:12:49;23.30;99.90
52859;DHT22;38721;53.098;6.596;2022-08-01T14:15:15;23.30;99.90
52859;DHT22;38721;53.098;6.596;2022-08-01T14:17:41;23.50;99.90
52859;DHT22;38721;53.098;6.596;2022-08-01T14:20:07;23.40;99.90
52859;DHT22;38721;53.098;6.596;2022-08-01T14:22:35;24.10;99.90
52859;DHT22;38721;53.098;6.596;2022-08-01T14:25:01;23.70;99.90
52859;DHT22;38721;53.098;6.596;2022-08-01T14:27:28;22.90;99.90
52859;DHT22;38721;53.098;6.596;2022-08-01T14:29:56;23.10;99.90
52859;DHT22;38721;53.098;6.596;2022-08-01T14:32:22;23.60;99.90
52859;DHT22;38721;53.098;6.596;2022-08-01T14:34:47;22.80;99.90
52859;DHT22;38721;53.098;6.596;2022-08-01T14:37:13;22.30;99.90
52859;DHT22;38721;53.098;6.596;2022-08-01T14:39:39;22.20;99.90
52859;DHT22;38721;53.098;6.596;2022-08-01T14:42:05;22.50;99.90
52859;DHT22;38721;53.098;6.596;2022-08-01T14:44:30;22.30;99.90
52859;DHT22;38721;53.098;6.596;2022-08-01T14:46:56;22.70;99.90
52859;DHT22;38721;53.098;6.596;2022-08-01T14:49:22;22.10;99.90
52859;DHT22;38721;53.098;6.596;2022-08-01T14:51:47;22.10;99.90
52859;DHT22;38721;53.098;6.596;2022-08-01T14:54:13;22.40;99.90
52859;DHT22;38721;53.098;6.596;2022-08-01T14:56:39;22.80;99.90
52859;DHT22;38721;53.098;6.596;2022-08-01T14:59:04;23.00;99.90
52859;DHT22;38721;53.098;6.596;2022-08-01T15:01:30;22.40;99.90
52859;DHT22;38721;53.098;6.596;2022-08-01T15:03:56;22.00;99.90
52859;DHT22;38721;53.098;6.596;2022-08-01T15:06:22;22.20;99.90
52859;DHT22;38721;53.098;6.596;2022-08-01T15:08:47;21.70;99.90
52859;DHT22;38721;53.098;6.596;2022-08-01T15:11:13;22.60;99.90
52859;DHT22;38721;53.098;6.596;2022-08-01T15:13:39;23.80;99.90
52859;DHT22;38721;53.098;6.596;2022-08-01T15:16:04;23.50;99.90
52859;DHT22;38721;53.098;6.596;2022-08-01T15:18:30;23.40;99.90
52859;DHT22;38721;53.098;6.596;2022-08-01T15:20:56;23.40;99.90
52859;DHT22;38721;53.098;6.596;2022-08-01T15:23:25;24.90;99.90
52859;DHT22;38721;53.098;6.596;2022-08-01T15:25:51;24.60;99.90
52859;DHT22;38721;53.098;6.596;2022-08-01T15:28:16;24.90;99.90
52859;DHT22;38721;53.098;6.596;2022-08-01T15:30:42;25.90;99.90
52859;DHT22;38721;53.098;6.596;2022-08-01T15:33:08;25.60;99.90
52859;DHT22;38721;53.098;6.596;2022-08-01T15:35:34;27.30;99.90
52859;DHT22;38721;53.098;6.596;2022-08-01T15:37:59;27.00;99.90
52859;DHT22;38721;53.098;6.596;2022-08-01T15:40:28;28.60;99.90
52859;DHT22;38721;53.098;6.596;2022-08-01T15:42:54;27.40;99.90
52859;DHT22;38721;53.098;6.596;2022-08-01T15:45:19;28.60;99.90
52859;DHT22;38721;53.098;6.596;2022-08-01T15:47:46;27.50;99.90
52859;DHT22;38721;53.098;6.596;2022-08-01T15:50:12;27.30;99.90
52859;DHT22;38721;53.098;6.596;2022-08-01T15:52:37;26.30;99.90
52859;DHT22;38721;53.098;6.596;2022-08-01T15:55:07;26.90;99.90
52859;DHT22;38721;53.098;6.596;2022-08-01T15:57:33;26.70;99.90
52859;DHT22;38721;53.098;6.596;2022-08-01T15:59:58;28.50;99.90
52859;DHT22;38721;53.098;6.596;2022-08-01T16:02:24;27.90;99.90
52859;DHT22;38721;53.098;6.596;2022-08-01T16:04:50;27.50;99.90
52859;DHT22;38721;53.098;6.596;2022-08-01T16:07:15;27.60;99.90
52859;DHT22;38721;53.098;6.596;2022-08-01T16:09:41;27.00;99.90
52859;DHT22;38721;53.098;6.596;2022-08-01T16:12:07;29.20;99.90
52859;DHT22;38721;53.098;6.596;2022-08-01T16:14:36;27.20;99.90
52859;DHT22;38721;53.098;6.596;2022-08-01T16:17:02;27.50;99.90
52859;DHT22;38721;53.098;6.596;2022-08-01T16:19:28;29.70;99.90